Main page
METAR-TAF:

METAR-TAF

Airports :

Cerklje ob Krki, Slovenia

Cerklje ob Krki Airport

latitude: 45-53-59N, longitude: 15-30-55E, elevation: 157 m

Current weather observation

The report was made 43 minutes ago, at 10:30 UTC
Wind 4 kt from the West
Temperature 4°C
Humidity 87%
Pressure 1008 hPa
Visibility 10 km or more
Few clouds at a height of 700 ft
Broken clouds at a height of 7000 ft

METAR: LJCE 161030Z 26004KT 9999 FEW007 BKN070 04/02 Q1008 RMK BLU

Time: 12:13 (11:13 UTC)

Forecast

The report was made 3 hours and 13 minutes ago, at 08:00 UTC
Forecast valid from 16 at 09 UTC to 16 at 18 UTC
Wind 5 kt from the West/Southwest
Visibility 10 km or more
Scattered clouds at a height of 2500 ft
Overcast at a height of 5500 ft
light rain
Becoming
from 16 at 09 UTC to 16 at 12 UTC
Becoming
from 16 at 12 UTC to 16 at 15 UTC
Few clouds at a height of 3000 ft
Broken clouds at a height of 9000 ft

TAF: LJCE 160800Z 1609/1618 25005KT 9999 -RA SCT025 OVC055 BECMG 1609/1612 NSW BECMG 1612/1615 FEW030 BKN090

Weather observations and forecasts of more than 4000 airports (METAR and TAF reports).

The available stations are represented by yellow and red dots on the map.

Hover mouse over dot to see the name of the station.

Then click to see weather observations and forecasts.

To change the map : click on the green buttons with a black cross to zoom in, on the green button with a dash to zoom out, or on the green arrows for adjacent maps.


METAR-TAF: